sensor_id;sensor_type;location;lat;lon;timestamp;P1;durP1;ratioP1;P2;durP2;ratioP2
29814;SDS011;16708;50.426;7.664;2023-08-12T00:00:24;6.60;;;3.30;;
29814;SDS011;16708;50.426;7.664;2023-08-12T00:05:18;5.10;;;3.10;;
29814;SDS011;16708;50.426;7.664;2023-08-12T00:10:11;6.80;;;3.30;;
29814;SDS011;16708;50.426;7.664;2023-08-12T00:15:05;6.20;;;3.20;;
29814;SDS011;16708;50.426;7.664;2023-08-12T00:20:00;9.40;;;4.00;;
29814;SDS011;16708;50.426;7.664;2023-08-12T00:24:54;7.80;;;3.80;;
29814;SDS011;16708;50.426;7.664;2023-08-12T00:29:49;8.30;;;4.10;;
29814;SDS011;16708;50.426;7.664;2023-08-12T00:34:43;9.40;;;4.90;;
29814;SDS011;16708;50.426;7.664;2023-08-12T00:39:38;7.00;;;4.20;;
29814;SDS011;16708;50.426;7.664;2023-08-12T00:44:32;9.90;;;5.00;;
29814;SDS011;16708;50.426;7.664;2023-08-12T00:49:25;14.30;;;7.90;;
29814;SDS011;16708;50.426;7.664;2023-08-12T00:54:20;13.90;;;8.30;;
29814;SDS011;16708;50.426;7.664;2023-08-12T00:59:12;21.00;;;13.00;;
29814;SDS011;16708;50.426;7.664;2023-08-12T01:04:06;30.00;;;16.70;;
29814;SDS011;16708;50.426;7.664;2023-08-12T01:09:00;30.60;;;18.50;;
29814;SDS011;16708;50.426;7.664;2023-08-12T01:13:55;34.40;;;19.00;;
29814;SDS011;16708;50.426;7.664;2023-08-12T01:18:49;38.80;;;21.80;;
29814;SDS011;16708;50.426;7.664;2023-08-12T01:23:44;43.40;;;23.60;;
29814;SDS011;16708;50.426;7.664;2023-08-12T01:28:38;49.00;;;27.10;;
29814;SDS011;16708;50.426;7.664;2023-08-12T01:33:32;43.90;;;26.60;;
29814;SDS011;16708;50.426;7.664;2023-08-12T01:38:26;46.70;;;28.10;;
29814;SDS011;16708;50.426;7.664;2023-08-12T01:43:21;49.80;;;28.70;;
29814;SDS011;16708;50.426;7.664;2023-08-12T01:48:15;63.10;;;31.40;;
29814;SDS011;16708;50.426;7.664;2023-08-12T01:53:09;58.20;;;31.40;;
29814;SDS011;16708;50.426;7.664;2023-08-12T01:58:03;77.40;;;35.70;;
29814;SDS011;16708;50.426;7.664;2023-08-12T02:02:58;66.30;;;34.40;;
29814;SDS011;16708;50.426;7.664;2023-08-12T02:07:52;41.30;;;24.70;;
29814;SDS011;16708;50.426;7.664;2023-08-12T02:12:46;53.30;;;28.90;;
29814;SDS011;16708;50.426;7.664;2023-08-12T02:17:40;45.60;;;25.70;;
29814;SDS011;16708;50.426;7.664;2023-08-12T02:22:34;43.80;;;24.20;;
29814;SDS011;16708;50.426;7.664;2023-08-12T02:27:28;40.50;;;23.80;;
29814;SDS011;16708;50.426;7.664;2023-08-12T02:32:22;36.10;;;21.90;;
29814;SDS011;16708;50.426;7.664;2023-08-12T02:37:16;28.40;;;17.40;;
29814;SDS011;16708;50.426;7.664;2023-08-12T02:42:10;35.60;;;21.00;;
29814;SDS011;16708;50.426;7.664;2023-08-12T02:47:05;37.70;;;21.70;;
29814;SDS011;16708;50.426;7.664;2023-08-12T02:56:52;33.10;;;20.20;;
29814;SDS011;16708;50.426;7.664;2023-08-12T03:01:46;31.50;;;19.70;;
29814;SDS011;16708;50.426;7.664;2023-08-12T03:06:40;32.60;;;20.20;;
29814;SDS011;16708;50.426;7.664;2023-08-12T03:11:34;34.80;;;21.10;;
29814;SDS011;16708;50.426;7.664;2023-08-12T03:16:28;32.70;;;20.20;;
29814;SDS011;16708;50.426;7.664;2023-08-12T03:21:22;28.80;;;17.20;;
29814;SDS011;16708;50.426;7.664;2023-08-12T03:26:15;38.50;;;21.90;;
29814;SDS011;16708;50.426;7.664;2023-08-12T03:31:09;36.40;;;21.40;;
29814;SDS011;16708;50.426;7.664;2023-08-12T03:36:04;36.50;;;19.90;;
29814;SDS011;16708;50.426;7.664;2023-08-12T03:40:57;33.20;;;19.40;;
29814;SDS011;16708;50.426;7.664;2023-08-12T03:45:51;29.20;;;18.80;;
29814;SDS011;16708;50.426;7.664;2023-08-12T03:50:46;33.90;;;21.30;;
29814;SDS011;16708;50.426;7.664;2023-08-12T03:55:40;35.30;;;21.00;;
29814;SDS011;16708;50.426;7.664;2023-08-12T04:00:34;34.00;;;19.70;;
29814;SDS011;16708;50.426;7.664;2023-08-12T04:05:27;32.40;;;18.70;;
29814;SDS011;16708;50.426;7.664;2023-08-12T04:10:23;32.50;;;19.70;;
29814;SDS011;16708;50.426;7.664;2023-08-12T04:15:17;36.50;;;21.10;;
29814;SDS011;16708;50.426;7.664;2023-08-12T04:20:11;28.70;;;18.80;;
29814;SDS011;16708;50.426;7.664;2023-08-12T04:25:06;25.50;;;17.30;;
29814;SDS011;16708;50.426;7.664;2023-08-12T04:30:00;24.70;;;16.50;;
29814;SDS011;16708;50.426;7.664;2023-08-12T04:34:55;24.80;;;16.00;;
29814;SDS011;16708;50.426;7.664;2023-08-12T04:39:49;19.30;;;12.90;;
29814;SDS011;16708;50.426;7.664;2023-08-12T04:44:43;20.40;;;13.60;;
29814;SDS011;16708;50.426;7.664;2023-08-12T04:49:37;20.20;;;12.90;;
29814;SDS011;16708;50.426;7.664;2023-08-12T04:54:31;18.90;;;13.20;;
29814;SDS011;16708;50.426;7.664;2023-08-12T04:59:26;22.60;;;14.10;;
29814;SDS011;16708;50.426;7.664;2023-08-12T05:04:20;23.80;;;15.10;;
29814;SDS011;16708;50.426;7.664;2023-08-12T05:09:14;19.10;;;13.60;;
29814;SDS011;16708;50.426;7.664;2023-08-12T05:14:08;17.50;;;12.10;;
29814;SDS011;16708;50.426;7.664;2023-08-12T05:19:03;17.20;;;11.60;;
29814;SDS011;16708;50.426;7.664;2023-08-12T05:23:58;11.60;;;8.60;;
29814;SDS011;16708;50.426;7.664;2023-08-12T05:28:52;11.70;;;8.30;;
29814;SDS011;16708;50.426;7.664;2023-08-12T05:33:46;10.50;;;8.00;;
29814;SDS011;16708;50.426;7.664;2023-08-12T05:38:40;9.00;;;7.30;;
29814;SDS011;16708;50.426;7.664;2023-08-12T05:43:34;9.80;;;7.60;;
29814;SDS011;16708;50.426;7.664;2023-08-12T05:48:28;10.20;;;7.40;;
29814;SDS011;16708;50.426;7.664;2023-08-12T05:53:23;9.10;;;6.30;;
29814;SDS011;16708;50.426;7.664;2023-08-12T05:58:16;8.40;;;5.70;;
29814;SDS011;16708;50.426;7.664;2023-08-12T06:03:11;5.20;;;3.90;;
29814;SDS011;16708;50.426;7.664;2023-08-12T06:08:06;4.30;;;3.30;;
29814;SDS011;16708;50.426;7.664;2023-08-12T06:13:00;3.80;;;2.90;;
29814;SDS011;16708;50.426;7.664;2023-08-12T06:17:54;3.50;;;2.40;;
29814;SDS011;16708;50.426;7.664;2023-08-12T06:22:49;3.00;;;2.70;;
29814;SDS011;16708;50.426;7.664;2023-08-12T06:27:43;3.30;;;3.00;;
29814;SDS011;16708;50.426;7.664;2023-08-12T06:32:37;7.90;;;5.70;;
29814;SDS011;16708;50.426;7.664;2023-08-12T06:37:30;9.40;;;6.70;;
29814;SDS011;16708;50.426;7.664;2023-08-12T06:42:24;11.00;;;8.50;;
29814;SDS011;16708;50.426;7.664;2023-08-12T06:47:18;12.40;;;8.70;;
29814;SDS011;16708;50.426;7.664;2023-08-12T06:52:12;11.60;;;8.80;;
29814;SDS011;16708;50.426;7.664;2023-08-12T06:57:07;14.40;;;10.80;;
29814;SDS011;16708;50.426;7.664;2023-08-12T07:02:01;16.00;;;11.30;;
29814;SDS011;16708;50.426;7.664;2023-08-12T07:06:56;20.20;;;15.10;;
29814;SDS011;16708;50.426;7.664;2023-08-12T07:11:51;19.80;;;14.30;;
29814;SDS011;16708;50.426;7.664;2023-08-12T07:16:45;15.70;;;11.50;;
29814;SDS011;16708;50.426;7.664;2023-08-12T07:21:39;15.10;;;10.40;;
29814;SDS011;16708;50.426;7.664;2023-08-12T07:26:33;15.70;;;11.30;;
29814;SDS011;16708;50.426;7.664;2023-08-12T07:31:28;12.70;;;9.80;;
29814;SDS011;16708;50.426;7.664;2023-08-12T07:36:22;13.40;;;9.10;;
29814;SDS011;16708;50.426;7.664;2023-08-12T07:41:17;11.60;;;8.50;;
29814;SDS011;16708;50.426;7.664;2023-08-12T07:46:11;7.90;;;6.70;;
29814;SDS011;16708;50.426;7.664;2023-08-12T07:51:06;5.00;;;4.20;;
29814;SDS011;16708;50.426;7.664;2023-08-12T07:56:01;5.30;;;3.90;;
29814;SDS011;16708;50.426;7.664;2023-08-12T08:00:56;5.20;;;3.30;;
29814;SDS011;16708;50.426;7.664;2023-08-12T08:05:50;3.70;;;3.20;;
29814;SDS011;16708;50.426;7.664;2023-08-12T08:10:46;4.70;;;3.00;;
29814;SDS011;16708;50.426;7.664;2023-08-12T08:15:39;6.70;;;3.20;;
29814;SDS011;16708;50.426;7.664;2023-08-12T08:20:34;3.30;;;3.00;;
29814;SDS011;16708;50.426;7.664;2023-08-12T08:25:28;5.70;;;3.60;;
29814;SDS011;16708;50.426;7.664;2023-08-12T08:30:23;3.50;;;3.10;;
29814;SDS011;16708;50.426;7.664;2023-08-12T08:35:17;4.40;;;2.30;;
29814;SDS011;16708;50.426;7.664;2023-08-12T08:40:11;4.70;;;2.20;;
29814;SDS011;16708;50.426;7.664;2023-08-12T08:45:07;2.40;;;2.10;;
29814;SDS011;16708;50.426;7.664;2023-08-12T08:50:04;2.70;;;2.20;;
29814;SDS011;16708;50.426;7.664;2023-08-12T08:54:56;4.70;;;2.20;;
29814;SDS011;16708;50.426;7.664;2023-08-12T08:59:50;4.00;;;2.20;;
29814;SDS011;16708;50.426;7.664;2023-08-12T09:04:44;2.90;;;2.40;;
29814;SDS011;16708;50.426;7.664;2023-08-12T09:09:39;3.10;;;2.30;;
29814;SDS011;16708;50.426;7.664;2023-08-12T09:14:34;4.30;;;2.40;;
29814;SDS011;16708;50.426;7.664;2023-08-12T09:19:28;3.30;;;2.30;;
29814;SDS011;16708;50.426;7.664;2023-08-12T09:24:23;5.10;;;2.60;;
29814;SDS011;16708;50.426;7.664;2023-08-12T09:29:17;3.30;;;2.20;;
29814;SDS011;16708;50.426;7.664;2023-08-12T09:34:11;3.40;;;2.30;;
29814;SDS011;16708;50.426;7.664;2023-08-12T09:39:05;3.70;;;2.60;;
29814;SDS011;16708;50.426;7.664;2023-08-12T09:44:00;4.10;;;2.30;;
29814;SDS011;16708;50.426;7.664;2023-08-12T09:48:54;6.30;;;2.60;;
29814;SDS011;16708;50.426;7.664;2023-08-12T09:53:49;2.90;;;2.30;;
29814;SDS011;16708;50.426;7.664;2023-08-12T09:58:43;3.90;;;2.30;;
29814;SDS011;16708;50.426;7.664;2023-08-12T10:03:37;4.10;;;2.20;;
29814;SDS011;16708;50.426;7.664;2023-08-12T10:08:32;3.10;;;2.10;;
29814;SDS011;16708;50.426;7.664;2023-08-12T10:13:26;4.90;;;2.20;;
29814;SDS011;16708;50.426;7.664;2023-08-12T10:18:21;3.80;;;2.00;;
29814;SDS011;16708;50.426;7.664;2023-08-12T10:23:15;4.30;;;2.10;;
29814;SDS011;16708;50.426;7.664;2023-08-12T10:28:10;3.80;;;1.90;;
29814;SDS011;16708;50.426;7.664;2023-08-12T10:33:05;3.70;;;2.00;;
29814;SDS011;16708;50.426;7.664;2023-08-12T10:38:00;3.20;;;2.10;;
29814;SDS011;16708;50.426;7.664;2023-08-12T10:42:55;4.60;;;1.80;;
29814;SDS011;16708;50.426;7.664;2023-08-12T10:47:50;2.80;;;1.70;;
29814;SDS011;16708;50.426;7.664;2023-08-12T10:57:37;3.10;;;1.90;;
29814;SDS011;16708;50.426;7.664;2023-08-12T11:02:32;6.50;;;2.10;;
29814;SDS011;16708;50.426;7.664;2023-08-12T11:12:22;5.00;;;2.20;;
29814;SDS011;16708;50.426;7.664;2023-08-12T11:17:14;3.10;;;1.80;;
29814;SDS011;16708;50.426;7.664;2023-08-12T11:22:08;3.80;;;2.10;;
29814;SDS011;16708;50.426;7.664;2023-08-12T11:27:02;3.10;;;1.80;;
29814;SDS011;16708;50.426;7.664;2023-08-12T11:31:56;5.00;;;2.10;;
29814;SDS011;16708;50.426;7.664;2023-08-12T11:36:51;4.90;;;2.30;;
29814;SDS011;16708;50.426;7.664;2023-08-12T11:41:45;4.10;;;2.00;;
29814;SDS011;16708;50.426;7.664;2023-08-12T11:46:39;2.60;;;1.90;;
29814;SDS011;16708;50.426;7.664;2023-08-12T11:51:33;3.80;;;1.90;;
29814;SDS011;16708;50.426;7.664;2023-08-12T11:56:28;4.50;;;1.90;;
29814;SDS011;16708;50.426;7.664;2023-08-12T12:06:13;5.70;;;2.20;;
29814;SDS011;16708;50.426;7.664;2023-08-12T12:11:07;10.00;;;3.40;;
29814;SDS011;16708;50.426;7.664;2023-08-12T12:16:02;4.30;;;2.30;;
29814;SDS011;16708;50.426;7.664;2023-08-12T12:20:56;4.70;;;2.20;;
29814;SDS011;16708;50.426;7.664;2023-08-12T12:25:50;4.60;;;2.60;;
29814;SDS011;16708;50.426;7.664;2023-08-12T12:30:45;5.40;;;2.20;;
29814;SDS011;16708;50.426;7.664;2023-08-12T12:35:41;4.50;;;2.00;;
29814;SDS011;16708;50.426;7.664;2023-08-12T12:45:31;3.50;;;1.80;;
29814;SDS011;16708;50.426;7.664;2023-08-12T12:50:27;6.00;;;2.00;;
29814;SDS011;16708;50.426;7.664;2023-08-12T12:55:22;4.60;;;1.90;;
29814;SDS011;16708;50.426;7.664;2023-08-12T13:00:15;3.00;;;1.90;;
29814;SDS011;16708;50.426;7.664;2023-08-12T13:05:09;3.00;;;1.70;;
29814;SDS011;16708;50.426;7.664;2023-08-12T13:10:03;2.30;;;1.90;;
29814;SDS011;16708;50.426;7.664;2023-08-12T13:14:57;3.40;;;2.10;;
29814;SDS011;16708;50.426;7.664;2023-08-12T13:19:52;2.70;;;1.90;;
29814;SDS011;16708;50.426;7.664;2023-08-12T13:24:46;4.10;;;2.00;;
29814;SDS011;16708;50.426;7.664;2023-08-12T13:29:38;3.20;;;2.00;;
29814;SDS011;16708;50.426;7.664;2023-08-12T13:34:31;3.60;;;2.00;;
29814;SDS011;16708;50.426;7.664;2023-08-12T13:39:26;3.00;;;1.90;;
29814;SDS011;16708;50.426;7.664;2023-08-12T13:44:20;3.70;;;1.80;;
29814;SDS011;16708;50.426;7.664;2023-08-12T13:49:14;2.60;;;1.70;;
29814;SDS011;16708;50.426;7.664;2023-08-12T13:54:09;2.40;;;1.70;;
29814;SDS011;16708;50.426;7.664;2023-08-12T13:59:03;2.10;;;1.50;;
29814;SDS011;16708;50.426;7.664;2023-08-12T14:03:58;3.40;;;1.80;;
29814;SDS011;16708;50.426;7.664;2023-08-12T14:08:52;2.80;;;1.60;;
29814;SDS011;16708;50.426;7.664;2023-08-12T14:13:45;3.10;;;1.30;;
29814;SDS011;16708;50.426;7.664;2023-08-12T14:18:39;2.70;;;1.20;;
29814;SDS011;16708;50.426;7.664;2023-08-12T14:23:31;2.00;;;1.20;;
29814;SDS011;16708;50.426;7.664;2023-08-12T14:28:25;1.90;;;1.20;;
29814;SDS011;16708;50.426;7.664;2023-08-12T14:33:19;1.60;;;1.00;;
29814;SDS011;16708;50.426;7.664;2023-08-12T14:38:14;4.20;;;1.20;;
29814;SDS011;16708;50.426;7.664;2023-08-12T14:43:09;2.20;;;1.40;;
29814;SDS011;16708;50.426;7.664;2023-08-12T14:48:03;2.80;;;1.40;;
29814;SDS011;16708;50.426;7.664;2023-08-12T14:52:58;2.00;;;1.30;;
29814;SDS011;16708;50.426;7.664;2023-08-12T14:57:52;2.70;;;1.60;;
29814;SDS011;16708;50.426;7.664;2023-08-12T15:02:47;2.70;;;1.60;;
29814;SDS011;16708;50.426;7.664;2023-08-12T15:07:42;2.90;;;1.60;;
29814;SDS011;16708;50.426;7.664;2023-08-12T15:12:37;3.60;;;1.80;;
29814;SDS011;16708;50.426;7.664;2023-08-12T15:17:31;2.90;;;1.60;;
29814;SDS011;16708;50.426;7.664;2023-08-12T15:22:26;2.30;;;1.30;;
29814;SDS011;16708;50.426;7.664;2023-08-12T15:27:20;2.10;;;1.30;;
29814;SDS011;16708;50.426;7.664;2023-08-12T15:32:15;1.50;;;1.20;;
29814;SDS011;16708;50.426;7.664;2023-08-12T15:37:09;1.70;;;1.10;;
29814;SDS011;16708;50.426;7.664;2023-08-12T15:42:04;2.90;;;1.20;;
29814;SDS011;16708;50.426;7.664;2023-08-12T15:46:59;4.00;;;1.40;;
29814;SDS011;16708;50.426;7.664;2023-08-12T15:51:54;3.30;;;1.30;;
29814;SDS011;16708;50.426;7.664;2023-08-12T15:56:48;2.10;;;1.10;;
29814;SDS011;16708;50.426;7.664;2023-08-12T16:01:42;2.40;;;1.10;;
29814;SDS011;16708;50.426;7.664;2023-08-12T16:06:37;1.90;;;1.20;;
29814;SDS011;16708;50.426;7.664;2023-08-12T16:11:30;2.40;;;1.20;;
29814;SDS011;16708;50.426;7.664;2023-08-12T16:16:26;2.10;;;1.10;;
29814;SDS011;16708;50.426;7.664;2023-08-12T16:21:21;2.40;;;1.10;;
29814;SDS011;16708;50.426;7.664;2023-08-12T16:26:16;2.10;;;1.00;;
29814;SDS011;16708;50.426;7.664;2023-08-12T16:31:12;2.20;;;1.20;;
29814;SDS011;16708;50.426;7.664;2023-08-12T16:36:02;2.00;;;1.00;;
29814;SDS011;16708;50.426;7.664;2023-08-12T16:40:55;1.70;;;1.20;;
29814;SDS011;16708;50.426;7.664;2023-08-12T16:45:49;3.50;;;1.60;;
29814;SDS011;16708;50.426;7.664;2023-08-12T16:50:43;1.80;;;1.00;;
29814;SDS011;16708;50.426;7.664;2023-08-12T16:55:37;2.70;;;0.90;;
29814;SDS011;16708;50.426;7.664;2023-08-12T17:00:31;2.90;;;0.80;;
29814;SDS011;16708;50.426;7.664;2023-08-12T17:05:25;0.60;;;0.60;;
29814;SDS011;16708;50.426;7.664;2023-08-12T17:10:20;1.10;;;0.70;;
29814;SDS011;16708;50.426;7.664;2023-08-12T17:15:14;0.70;;;0.60;;
29814;SDS011;16708;50.426;7.664;2023-08-12T17:20:08;1.70;;;0.60;;
29814;SDS011;16708;50.426;7.664;2023-08-12T17:25:01;1.20;;;0.50;;
29814;SDS011;16708;50.426;7.664;2023-08-12T17:29:56;1.60;;;0.50;;
29814;SDS011;16708;50.426;7.664;2023-08-12T17:34:49;0.80;;;0.50;;
29814;SDS011;16708;50.426;7.664;2023-08-12T17:39:44;1.30;;;0.60;;
29814;SDS011;16708;50.426;7.664;2023-08-12T17:44:38;1.40;;;0.50;;
29814;SDS011;16708;50.426;7.664;2023-08-12T17:49:31;2.90;;;0.80;;
29814;SDS011;16708;50.426;7.664;2023-08-12T17:54:25;0.70;;;0.50;;
29814;SDS011;16708;50.426;7.664;2023-08-12T17:59:21;0.80;;;0.50;;
29814;SDS011;16708;50.426;7.664;2023-08-12T18:04:12;2.70;;;0.50;;
29814;SDS011;16708;50.426;7.664;2023-08-12T18:09:07;1.50;;;0.60;;
29814;SDS011;16708;50.426;7.664;2023-08-12T18:13:58;2.80;;;0.60;;
29814;SDS011;16708;50.426;7.664;2023-08-12T18:18:52;0.80;;;0.60;;
29814;SDS011;16708;50.426;7.664;2023-08-12T18:23:46;2.60;;;1.00;;
29814;SDS011;16708;50.426;7.664;2023-08-12T18:28:42;2.40;;;0.80;;
29814;SDS011;16708;50.426;7.664;2023-08-12T18:33:35;3.70;;;1.30;;
29814;SDS011;16708;50.426;7.664;2023-08-12T18:38:29;3.90;;;1.00;;
29814;SDS011;16708;50.426;7.664;2023-08-12T18:43:23;1.40;;;0.80;;
29814;SDS011;16708;50.426;7.664;2023-08-12T18:48:17;1.40;;;0.90;;
29814;SDS011;16708;50.426;7.664;2023-08-12T18:53:12;2.40;;;1.10;;
29814;SDS011;16708;50.426;7.664;2023-08-12T18:58:06;0.80;;;0.70;;
29814;SDS011;16708;50.426;7.664;2023-08-12T19:03:00;1.10;;;0.90;;
29814;SDS011;16708;50.426;7.664;2023-08-12T19:07:54;3.40;;;1.00;;
29814;SDS011;16708;50.426;7.664;2023-08-12T19:12:48;4.30;;;0.90;;
29814;SDS011;16708;50.426;7.664;2023-08-12T19:17:43;2.30;;;0.90;;
29814;SDS011;16708;50.426;7.664;2023-08-12T19:22:37;2.60;;;1.00;;
29814;SDS011;16708;50.426;7.664;2023-08-12T19:27:31;5.50;;;1.10;;
29814;SDS011;16708;50.426;7.664;2023-08-12T19:32:25;4.10;;;1.20;;
29814;SDS011;16708;50.426;7.664;2023-08-12T19:37:20;9.60;;;1.80;;
29814;SDS011;16708;50.426;7.664;2023-08-12T19:42:14;4.40;;;1.90;;
29814;SDS011;16708;50.426;7.664;2023-08-12T19:47:08;3.90;;;1.50;;
29814;SDS011;16708;50.426;7.664;2023-08-12T19:52:02;5.00;;;1.80;;
29814;SDS011;16708;50.426;7.664;2023-08-12T19:56:55;6.20;;;1.70;;
29814;SDS011;16708;50.426;7.664;2023-08-12T20:01:49;5.00;;;2.30;;
29814;SDS011;16708;50.426;7.664;2023-08-12T20:06:43;4.90;;;2.40;;
29814;SDS011;16708;50.426;7.664;2023-08-12T20:11:37;7.30;;;2.10;;
29814;SDS011;16708;50.426;7.664;2023-08-12T20:16:31;4.40;;;2.30;;
29814;SDS011;16708;50.426;7.664;2023-08-12T20:21:25;6.40;;;2.50;;
29814;SDS011;16708;50.426;7.664;2023-08-12T20:26:19;6.40;;;2.40;;
29814;SDS011;16708;50.426;7.664;2023-08-12T20:31:14;5.50;;;2.50;;
29814;SDS011;16708;50.426;7.664;2023-08-12T20:36:08;7.90;;;3.40;;
29814;SDS011;16708;50.426;7.664;2023-08-12T20:41:02;7.40;;;3.40;;
29814;SDS011;16708;50.426;7.664;2023-08-12T20:45:56;4.60;;;3.20;;
29814;SDS011;16708;50.426;7.664;2023-08-12T20:50:51;7.10;;;3.10;;
29814;SDS011;16708;50.426;7.664;2023-08-12T20:55:43;6.20;;;2.80;;
29814;SDS011;16708;50.426;7.664;2023-08-12T21:00:37;7.10;;;3.10;;
29814;SDS011;16708;50.426;7.664;2023-08-12T21:05:28;6.20;;;3.30;;
29814;SDS011;16708;50.426;7.664;2023-08-12T21:10:23;8.30;;;3.90;;
29814;SDS011;16708;50.426;7.664;2023-08-12T21:15:15;7.40;;;4.10;;
29814;SDS011;16708;50.426;7.664;2023-08-12T21:20:10;8.30;;;4.50;;
29814;SDS011;16708;50.426;7.664;2023-08-12T21:25:04;6.40;;;3.40;;
29814;SDS011;16708;50.426;7.664;2023-08-12T21:29:58;7.90;;;3.60;;
29814;SDS011;16708;50.426;7.664;2023-08-12T21:34:54;9.60;;;4.00;;
29814;SDS011;16708;50.426;7.664;2023-08-12T21:39:47;8.70;;;3.70;;
29814;SDS011;16708;50.426;7.664;2023-08-12T21:44:42;8.80;;;3.80;;
29814;SDS011;16708;50.426;7.664;2023-08-12T21:49:36;6.00;;;3.10;;
29814;SDS011;16708;50.426;7.664;2023-08-12T21:54:30;4.30;;;2.80;;
29814;SDS011;16708;50.426;7.664;2023-08-12T21:59:25;9.50;;;3.60;;
29814;SDS011;16708;50.426;7.664;2023-08-12T22:04:19;12.80;;;4.30;;
29814;SDS011;16708;50.426;7.664;2023-08-12T22:09:13;9.40;;;4.50;;
29814;SDS011;16708;50.426;7.664;2023-08-12T22:14:08;8.30;;;4.20;;
29814;SDS011;16708;50.426;7.664;2023-08-12T22:19:02;8.60;;;4.50;;
29814;SDS011;16708;50.426;7.664;2023-08-12T22:23:56;8.30;;;4.50;;
29814;SDS011;16708;50.426;7.664;2023-08-12T22:28:51;12.30;;;4.90;;
29814;SDS011;16708;50.426;7.664;2023-08-12T22:33:45;8.80;;;4.10;;
29814;SDS011;16708;50.426;7.664;2023-08-12T22:38:40;9.00;;;4.70;;
29814;SDS011;16708;50.426;7.664;2023-08-12T22:43:34;8.80;;;4.60;;
29814;SDS011;16708;50.426;7.664;2023-08-12T22:48:29;11.00;;;4.40;;
29814;SDS011;16708;50.426;7.664;2023-08-12T22:53:23;12.90;;;5.00;;
29814;SDS011;16708;50.426;7.664;2023-08-12T22:58:19;11.60;;;4.70;;
29814;SDS011;16708;50.426;7.664;2023-08-12T23:03:12;10.20;;;4.40;;
29814;SDS011;16708;50.426;7.664;2023-08-12T23:08:06;10.80;;;5.50;;
29814;SDS011;16708;50.426;7.664;2023-08-12T23:13:01;12.20;;;5.20;;
29814;SDS011;16708;50.426;7.664;2023-08-12T23:17:55;8.60;;;4.70;;
29814;SDS011;16708;50.426;7.664;2023-08-12T23:22:49;10.20;;;5.00;;
29814;SDS011;16708;50.426;7.664;2023-08-12T23:27:43;12.30;;;5.60;;
29814;SDS011;16708;50.426;7.664;2023-08-12T23:32:37;10.10;;;5.70;;
29814;SDS011;16708;50.426;7.664;2023-08-12T23:37:29;11.20;;;5.60;;
29814;SDS011;16708;50.426;7.664;2023-08-12T23:42:25;8.20;;;5.20;;
29814;SDS011;16708;50.426;7.664;2023-08-12T23:47:18;9.80;;;4.70;;
29814;SDS011;16708;50.426;7.664;2023-08-12T23:52:12;10.80;;;5.50;;
29814;SDS011;16708;50.426;7.664;2023-08-12T23:57:05;13.80;;;5.90;;
